Menard, IL (62259)

4:35 PM CDT on October 31, 2014 (GMT -0500)
Firehouse | Change Station
CLOSE
Current Station
Personal Weather Station
Location: Chester, IL
Elevation: 650 ft
Nearby Weather Stations
Active Advisory: Freeze Warning

Elev 650 ft 37.91 °N, 89.82 °W | Updated 33 seconds ago

Partly Cloudy
Partly Cloudy
45.0 °F
Feels Like 41 °F
N
8.0
Wind Variable Wind from NNW
Gusts 13.0 mph

Today
High -- | Low -- °F
--% Chance of Precip.
Yesterday
High -- | Low -- °F
Precip. -- in
7:23 AM 6:01 PM
First Quarter, 59% visible
Pressure 30.27 in
Visibility 10.0 miles
Clouds Scattered Clouds 5000 ft
Windchill 41 °F
Dew Point 24 °F
Humidity 44%
Rainfall 0.00 in
Snow Depth Not available.
UV 1 out of 12
Pollen 1.20 out of 12
Air Quality Not available.
Flu Activity Not available.
METAR KSAR 312115Z AUTO 33016G27KT 300V010 10SM SCT050 07/M05 A3027 RMK AO2 T00701046

More Conditions Fewer Conditions

Pressure 30.27 in
Visibility 10.0 miles
Clouds Scattered Clouds 5000 ft
Windchill 41 °F
Dew Point 24 °F
Humidity 44%
Rainfall 0.00 in
Snow Depth Not available.
UV 1 out of 12
Pollen 1.20 out of 12
Air Quality Not available.
Flu Activity Not available.
METAR KSAR 312115Z AUTO 33016G27KT 300V010 10SM SCT050 07/M05 A3027 RMK AO2 T00701046

More Conditions Fewer Conditions

10-Day Weather Forecast

Almanac

Astronomy

Oct. 31, 2014 Rise Set
Actual Time
Civil Twilight
Nautical Twilight
Astronomical Twilight
Moon
Length of Visible Light
Length of Day
Tomorrow will be .
, % of the Moon is Illuminated

Today's Extremes

State Highs State Lows

Community

WunderPhotos

Upload Photos

1,766,738 photos uploaded!

WunderBlogs® & News

Nearby

Air Quality

  Air Quality AQ Index Pollutant
Not available.

Snow Depth

Station Depth Elevation

Earthquake Activity

City Distance Mag. Time & Date
Minimum magnitude displayed is 2.5.

Coastal Water Temperatures

Place Temperature

Nearby Weather Stations